sensor_id;sensor_type;location;lat;lon;timestamp;P1;durP1;ratioP1;P2;durP2;ratioP2
2848;SDS011;59355;52.416;13.412;2023-07-31T00:01:02;3.83;;;2.60;;
2848;SDS011;59355;52.416;13.412;2023-07-31T00:03:27;4.90;;;2.70;;
2848;SDS011;59355;52.416;13.412;2023-07-31T00:05:53;5.23;;;3.20;;
2848;SDS011;59355;52.416;13.412;2023-07-31T00:08:18;6.80;;;3.43;;
2848;SDS011;59355;52.416;13.412;2023-07-31T00:10:43;4.27;;;3.17;;
2848;SDS011;59355;52.416;13.412;2023-07-31T00:13:08;5.13;;;3.50;;
2848;SDS011;59355;52.416;13.412;2023-07-31T00:15:34;4.00;;;3.03;;
2848;SDS011;59355;52.416;13.412;2023-07-31T00:17:59;3.83;;;3.43;;
2848;SDS011;59355;52.416;13.412;2023-07-31T00:20:26;5.53;;;3.00;;
2848;SDS011;59355;52.416;13.412;2023-07-31T00:22:51;4.50;;;3.20;;
2848;SDS011;59355;52.416;13.412;2023-07-31T00:25:16;6.20;;;3.50;;
2848;SDS011;59355;52.416;13.412;2023-07-31T00:27:42;4.73;;;3.40;;
2848;SDS011;59355;52.416;13.412;2023-07-31T00:30:09;3.83;;;3.10;;
2848;SDS011;59355;52.416;13.412;2023-07-31T00:32:35;4.43;;;3.23;;
2848;SDS011;59355;52.416;13.412;2023-07-31T00:35:00;6.80;;;3.93;;
2848;SDS011;59355;52.416;13.412;2023-07-31T00:37:26;3.50;;;3.00;;
2848;SDS011;59355;52.416;13.412;2023-07-31T00:39:51;5.00;;;3.40;;
2848;SDS011;59355;52.416;13.412;2023-07-31T00:42:17;3.80;;;3.13;;
2848;SDS011;59355;52.416;13.412;2023-07-31T00:44:42;4.20;;;3.30;;
2848;SDS011;59355;52.416;13.412;2023-07-31T00:47:07;4.87;;;3.20;;
2848;SDS011;59355;52.416;13.412;2023-07-31T00:49:33;5.23;;;3.40;;
2848;SDS011;59355;52.416;13.412;2023-07-31T00:51:58;3.33;;;2.77;;
2848;SDS011;59355;52.416;13.412;2023-07-31T00:54:24;4.80;;;3.70;;
2848;SDS011;59355;52.416;13.412;2023-07-31T00:56:49;4.33;;;3.13;;
2848;SDS011;59355;52.416;13.412;2023-07-31T00:59:15;4.50;;;3.20;;
2848;SDS011;59355;52.416;13.412;2023-07-31T01:01:41;5.27;;;3.07;;
2848;SDS011;59355;52.416;13.412;2023-07-31T01:04:06;4.60;;;3.63;;
2848;SDS011;59355;52.416;13.412;2023-07-31T01:11:57;5.67;;;3.37;;
2848;SDS011;59355;52.416;13.412;2023-07-31T01:14:26;4.80;;;2.93;;
2848;SDS011;59355;52.416;13.412;2023-07-31T01:16:51;3.10;;;2.80;;
2848;SDS011;59355;52.416;13.412;2023-07-31T01:19:17;6.83;;;3.40;;
2848;SDS011;59355;52.416;13.412;2023-07-31T01:22:07;4.77;;;3.43;;
2848;SDS011;59355;52.416;13.412;2023-07-31T01:24:55;5.20;;;3.47;;
2848;SDS011;59355;52.416;13.412;2023-07-31T01:27:43;4.47;;;3.40;;
2848;SDS011;59355;52.416;13.412;2023-07-31T01:30:16;5.93;;;3.70;;
2848;SDS011;59355;52.416;13.412;2023-07-31T01:32:47;3.43;;;3.13;;
2848;SDS011;59355;52.416;13.412;2023-07-31T01:35:13;5.30;;;3.60;;
2848;SDS011;59355;52.416;13.412;2023-07-31T01:37:39;5.57;;;3.20;;
2848;SDS011;59355;52.416;13.412;2023-07-31T01:40:04;4.80;;;3.73;;
2848;SDS011;59355;52.416;13.412;2023-07-31T01:42:30;3.80;;;3.23;;
2848;SDS011;59355;52.416;13.412;2023-07-31T01:44:56;4.80;;;3.20;;
2848;SDS011;59355;52.416;13.412;2023-07-31T01:47:21;6.20;;;3.70;;
2848;SDS011;59355;52.416;13.412;2023-07-31T01:49:46;4.30;;;3.73;;
2848;SDS011;59355;52.416;13.412;2023-07-31T01:52:12;5.37;;;3.60;;
2848;SDS011;59355;52.416;13.412;2023-07-31T01:54:37;6.93;;;3.80;;
2848;SDS011;59355;52.416;13.412;2023-07-31T01:57:02;6.20;;;3.37;;
2848;SDS011;59355;52.416;13.412;2023-07-31T01:59:28;8.43;;;3.93;;
2848;SDS011;59355;52.416;13.412;2023-07-31T02:01:53;4.67;;;3.70;;
2848;SDS011;59355;52.416;13.412;2023-07-31T02:04:19;5.20;;;4.13;;
2848;SDS011;59355;52.416;13.412;2023-07-31T02:06:44;6.60;;;4.43;;
2848;SDS011;59355;52.416;13.412;2023-07-31T02:09:09;6.23;;;4.23;;
2848;SDS011;59355;52.416;13.412;2023-07-31T02:11:35;8.10;;;4.20;;
2848;SDS011;59355;52.416;13.412;2023-07-31T02:14:00;4.33;;;3.93;;
2848;SDS011;59355;52.416;13.412;2023-07-31T02:16:25;7.50;;;3.63;;
2848;SDS011;59355;52.416;13.412;2023-07-31T02:18:51;6.33;;;3.73;;
2848;SDS011;59355;52.416;13.412;2023-07-31T02:21:16;6.57;;;4.47;;
2848;SDS011;59355;52.416;13.412;2023-07-31T02:23:41;4.80;;;4.23;;
2848;SDS011;59355;52.416;13.412;2023-07-31T02:26:07;6.03;;;4.13;;
2848;SDS011;59355;52.416;13.412;2023-07-31T02:28:32;6.00;;;4.20;;
2848;SDS011;59355;52.416;13.412;2023-07-31T02:30:57;3.90;;;3.60;;
2848;SDS011;59355;52.416;13.412;2023-07-31T02:33:23;5.23;;;4.13;;
2848;SDS011;59355;52.416;13.412;2023-07-31T02:35:48;7.67;;;4.70;;
2848;SDS011;59355;52.416;13.412;2023-07-31T02:38:13;5.53;;;4.50;;
2848;SDS011;59355;52.416;13.412;2023-07-31T02:40:39;5.20;;;3.47;;
2848;SDS011;59355;52.416;13.412;2023-07-31T02:43:06;5.23;;;4.20;;
2848;SDS011;59355;52.416;13.412;2023-07-31T02:45:31;9.90;;;5.20;;
2848;SDS011;59355;52.416;13.412;2023-07-31T02:47:56;8.83;;;5.70;;
2848;SDS011;59355;52.416;13.412;2023-07-31T02:50:22;6.40;;;5.37;;
2848;SDS011;59355;52.416;13.412;2023-07-31T02:52:47;6.10;;;5.37;;
2848;SDS011;59355;52.416;13.412;2023-07-31T02:55:12;6.07;;;5.33;;
2848;SDS011;59355;52.416;13.412;2023-07-31T02:57:37;6.40;;;5.10;;
2848;SDS011;59355;52.416;13.412;2023-07-31T03:00:03;6.10;;;5.50;;
2848;SDS011;59355;52.416;13.412;2023-07-31T03:02:31;5.70;;;5.10;;
2848;SDS011;59355;52.416;13.412;2023-07-31T03:04:56;5.60;;;4.70;;
2848;SDS011;59355;52.416;13.412;2023-07-31T03:07:21;9.10;;;6.00;;
2848;SDS011;59355;52.416;13.412;2023-07-31T03:09:47;6.23;;;5.43;;
2848;SDS011;59355;52.416;13.412;2023-07-31T03:12:12;6.20;;;5.60;;
2848;SDS011;59355;52.416;13.412;2023-07-31T03:14:37;6.33;;;5.40;;
2848;SDS011;59355;52.416;13.412;2023-07-31T03:17:03;9.00;;;6.67;;
2848;SDS011;59355;52.416;13.412;2023-07-31T03:19:30;6.27;;;5.67;;
2848;SDS011;59355;52.416;13.412;2023-07-31T03:21:56;9.43;;;6.40;;
2848;SDS011;59355;52.416;13.412;2023-07-31T03:24:21;6.10;;;5.60;;
2848;SDS011;59355;52.416;13.412;2023-07-31T03:26:46;7.30;;;6.40;;
2848;SDS011;59355;52.416;13.412;2023-07-31T03:29:11;6.63;;;5.67;;
2848;SDS011;59355;52.416;13.412;2023-07-31T03:31:37;6.60;;;5.60;;
2848;SDS011;59355;52.416;13.412;2023-07-31T03:34:02;5.90;;;5.23;;
2848;SDS011;59355;52.416;13.412;2023-07-31T03:36:27;8.07;;;6.20;;
2848;SDS011;59355;52.416;13.412;2023-07-31T03:38:53;7.77;;;6.10;;
2848;SDS011;59355;52.416;13.412;2023-07-31T03:41:18;8.93;;;6.10;;
2848;SDS011;59355;52.416;13.412;2023-07-31T03:43:45;8.00;;;5.77;;
2848;SDS011;59355;52.416;13.412;2023-07-31T03:46:12;8.50;;;6.20;;
2848;SDS011;59355;52.416;13.412;2023-07-31T03:48:38;6.30;;;5.70;;
2848;SDS011;59355;52.416;13.412;2023-07-31T03:51:03;6.23;;;5.60;;
2848;SDS011;59355;52.416;13.412;2023-07-31T03:53:28;6.00;;;5.37;;
2848;SDS011;59355;52.416;13.412;2023-07-31T03:55:54;7.43;;;5.87;;
2848;SDS011;59355;52.416;13.412;2023-07-31T03:58:19;7.33;;;5.53;;
2848;SDS011;59355;52.416;13.412;2023-07-31T04:00:45;8.10;;;5.30;;
2848;SDS011;59355;52.416;13.412;2023-07-31T04:03:10;7.83;;;5.90;;
2848;SDS011;59355;52.416;13.412;2023-07-31T04:05:37;6.00;;;5.20;;
2848;SDS011;59355;52.416;13.412;2023-07-31T04:08:03;7.30;;;5.33;;
2848;SDS011;59355;52.416;13.412;2023-07-31T04:10:28;6.27;;;5.60;;
2848;SDS011;59355;52.416;13.412;2023-07-31T04:12:54;8.27;;;6.70;;
2848;SDS011;59355;52.416;13.412;2023-07-31T04:15:19;8.10;;;5.90;;
2848;SDS011;59355;52.416;13.412;2023-07-31T04:17:45;8.07;;;5.77;;
2848;SDS011;59355;52.416;13.412;2023-07-31T04:20:10;10.07;;;5.70;;
2848;SDS011;59355;52.416;13.412;2023-07-31T04:22:35;9.63;;;6.17;;
2848;SDS011;59355;52.416;13.412;2023-07-31T04:25:01;10.93;;;5.90;;
2848;SDS011;59355;52.416;13.412;2023-07-31T04:27:26;8.93;;;5.80;;
2848;SDS011;59355;52.416;13.412;2023-07-31T04:29:51;7.40;;;5.87;;
2848;SDS011;59355;52.416;13.412;2023-07-31T04:32:17;7.07;;;5.70;;
2848;SDS011;59355;52.416;13.412;2023-07-31T04:34:42;10.23;;;6.13;;
2848;SDS011;59355;52.416;13.412;2023-07-31T04:37:08;9.40;;;6.00;;
2848;SDS011;59355;52.416;13.412;2023-07-31T04:39:33;7.50;;;6.70;;
2848;SDS011;59355;52.416;13.412;2023-07-31T04:41:58;7.43;;;6.10;;
2848;SDS011;59355;52.416;13.412;2023-07-31T04:44:24;7.30;;;5.97;;
2848;SDS011;59355;52.416;13.412;2023-07-31T04:46:49;8.80;;;5.47;;
2848;SDS011;59355;52.416;13.412;2023-07-31T04:49:14;8.10;;;5.50;;
2848;SDS011;59355;52.416;13.412;2023-07-31T04:51:40;7.00;;;6.00;;
2848;SDS011;59355;52.416;13.412;2023-07-31T04:54:05;7.03;;;5.47;;
2848;SDS011;59355;52.416;13.412;2023-07-31T04:56:30;8.13;;;5.33;;
2848;SDS011;59355;52.416;13.412;2023-07-31T04:58:55;7.93;;;5.10;;
2848;SDS011;59355;52.416;13.412;2023-07-31T05:01:21;8.67;;;5.40;;
2848;SDS011;59355;52.416;13.412;2023-07-31T05:03:46;9.10;;;5.90;;
2848;SDS011;59355;52.416;13.412;2023-07-31T05:06:11;5.40;;;4.90;;
2848;SDS011;59355;52.416;13.412;2023-07-31T05:08:38;8.10;;;5.57;;
2848;SDS011;59355;52.416;13.412;2023-07-31T05:11:03;5.57;;;4.97;;
2848;SDS011;59355;52.416;13.412;2023-07-31T05:13:29;5.80;;;4.97;;
2848;SDS011;59355;52.416;13.412;2023-07-31T05:15:54;6.50;;;5.07;;
2848;SDS011;59355;52.416;13.412;2023-07-31T05:18:19;6.00;;;4.90;;
2848;SDS011;59355;52.416;13.412;2023-07-31T05:20:45;6.47;;;4.50;;
2848;SDS011;59355;52.416;13.412;2023-07-31T05:23:10;7.30;;;4.27;;
2848;SDS011;59355;52.416;13.412;2023-07-31T05:25:35;5.97;;;4.13;;
2848;SDS011;59355;52.416;13.412;2023-07-31T05:28:00;8.70;;;4.90;;
2848;SDS011;59355;52.416;13.412;2023-07-31T05:30:26;9.13;;;4.77;;
2848;SDS011;59355;52.416;13.412;2023-07-31T05:32:51;7.07;;;4.83;;
2848;SDS011;59355;52.416;13.412;2023-07-31T05:35:17;6.17;;;4.73;;
2848;SDS011;59355;52.416;13.412;2023-07-31T05:37:42;7.33;;;4.47;;
2848;SDS011;59355;52.416;13.412;2023-07-31T05:40:07;4.93;;;4.47;;
2848;SDS011;59355;52.416;13.412;2023-07-31T05:42:33;5.70;;;4.50;;
2848;SDS011;59355;52.416;13.412;2023-07-31T05:44:59;5.63;;;4.30;;
2848;SDS011;59355;52.416;13.412;2023-07-31T05:47:24;7.37;;;5.00;;
2848;SDS011;59355;52.416;13.412;2023-07-31T05:49:50;7.47;;;4.67;;
2848;SDS011;59355;52.416;13.412;2023-07-31T05:52:17;5.10;;;4.17;;
2848;SDS011;59355;52.416;13.412;2023-07-31T05:54:43;10.90;;;4.00;;
2848;SDS011;59355;52.416;13.412;2023-07-31T05:57:08;10.97;;;4.77;;
2848;SDS011;59355;52.416;13.412;2023-07-31T05:59:34;8.13;;;4.43;;
2848;SDS011;59355;52.416;13.412;2023-07-31T06:01:59;5.50;;;3.97;;
2848;SDS011;59355;52.416;13.412;2023-07-31T06:04:24;7.00;;;4.93;;
2848;SDS011;59355;52.416;13.412;2023-07-31T06:06:50;7.30;;;4.60;;
2848;SDS011;59355;52.416;13.412;2023-07-31T06:09:16;5.93;;;4.80;;
2848;SDS011;59355;52.416;13.412;2023-07-31T06:11:41;4.53;;;3.97;;
2848;SDS011;59355;52.416;13.412;2023-07-31T06:14:06;6.90;;;4.90;;
2848;SDS011;59355;52.416;13.412;2023-07-31T06:16:32;6.37;;;4.00;;
2848;SDS011;59355;52.416;13.412;2023-07-31T06:18:57;6.70;;;4.07;;
2848;SDS011;59355;52.416;13.412;2023-07-31T06:21:22;4.07;;;3.53;;
2848;SDS011;59355;52.416;13.412;2023-07-31T06:23:48;5.50;;;4.10;;
2848;SDS011;59355;52.416;13.412;2023-07-31T06:26:13;5.93;;;4.07;;
2848;SDS011;59355;52.416;13.412;2023-07-31T06:28:38;5.77;;;4.20;;
2848;SDS011;59355;52.416;13.412;2023-07-31T06:31:04;7.07;;;4.33;;
2848;SDS011;59355;52.416;13.412;2023-07-31T06:33:29;6.17;;;4.43;;
2848;SDS011;59355;52.416;13.412;2023-07-31T06:35:55;7.47;;;4.17;;
2848;SDS011;59355;52.416;13.412;2023-07-31T06:38:24;7.90;;;4.30;;
2848;SDS011;59355;52.416;13.412;2023-07-31T06:40:50;5.90;;;4.20;;
2848;SDS011;59355;52.416;13.412;2023-07-31T06:43:16;6.03;;;4.37;;
2848;SDS011;59355;52.416;13.412;2023-07-31T06:45:41;10.17;;;5.43;;
2848;SDS011;59355;52.416;13.412;2023-07-31T06:48:06;11.30;;;4.90;;
2848;SDS011;59355;52.416;13.412;2023-07-31T06:50:32;5.40;;;4.30;;
2848;SDS011;59355;52.416;13.412;2023-07-31T06:52:57;4.20;;;3.33;;
2848;SDS011;59355;52.416;13.412;2023-07-31T06:55:23;6.60;;;4.40;;
2848;SDS011;59355;52.416;13.412;2023-07-31T06:57:49;5.60;;;4.10;;
2848;SDS011;59355;52.416;13.412;2023-07-31T07:00:15;7.03;;;4.63;;
2848;SDS011;59355;52.416;13.412;2023-07-31T07:02:41;5.90;;;4.50;;
2848;SDS011;59355;52.416;13.412;2023-07-31T07:05:07;7.23;;;4.40;;
2848;SDS011;59355;52.416;13.412;2023-07-31T07:07:33;5.13;;;4.63;;
2848;SDS011;59355;52.416;13.412;2023-07-31T07:09:58;8.47;;;4.90;;
2848;SDS011;59355;52.416;13.412;2023-07-31T07:12:24;10.83;;;5.33;;
2848;SDS011;59355;52.416;13.412;2023-07-31T07:14:50;5.43;;;4.63;;
2848;SDS011;59355;52.416;13.412;2023-07-31T07:17:15;6.93;;;5.10;;
2848;SDS011;59355;52.416;13.412;2023-07-31T07:19:40;6.20;;;4.57;;
2848;SDS011;59355;52.416;13.412;2023-07-31T07:22:07;6.30;;;5.00;;
2848;SDS011;59355;52.416;13.412;2023-07-31T07:24:32;5.23;;;4.50;;
2848;SDS011;59355;52.416;13.412;2023-07-31T07:26:57;6.80;;;5.03;;
2848;SDS011;59355;52.416;13.412;2023-07-31T07:29:23;7.17;;;5.53;;
2848;SDS011;59355;52.416;13.412;2023-07-31T07:31:48;6.30;;;4.57;;
2848;SDS011;59355;52.416;13.412;2023-07-31T07:34:13;8.13;;;5.37;;
2848;SDS011;59355;52.416;13.412;2023-07-31T07:36:38;10.20;;;5.43;;
2848;SDS011;59355;52.416;13.412;2023-07-31T07:39:04;5.90;;;4.87;;
2848;SDS011;59355;52.416;13.412;2023-07-31T07:41:30;4.93;;;4.07;;
2848;SDS011;59355;52.416;13.412;2023-07-31T07:43:55;9.67;;;4.80;;
2848;SDS011;59355;52.416;13.412;2023-07-31T07:46:20;6.57;;;5.00;;
2848;SDS011;59355;52.416;13.412;2023-07-31T07:48:46;6.33;;;5.43;;
2848;SDS011;59355;52.416;13.412;2023-07-31T07:51:11;7.30;;;4.90;;
2848;SDS011;59355;52.416;13.412;2023-07-31T07:53:36;5.07;;;4.53;;
2848;SDS011;59355;52.416;13.412;2023-07-31T07:56:02;6.17;;;4.10;;
2848;SDS011;59355;52.416;13.412;2023-07-31T07:58:27;5.63;;;4.00;;
2848;SDS011;59355;52.416;13.412;2023-07-31T08:00:52;8.43;;;4.40;;
2848;SDS011;59355;52.416;13.412;2023-07-31T08:03:17;5.40;;;4.17;;
2848;SDS011;59355;52.416;13.412;2023-07-31T08:05:43;5.73;;;4.70;;
2848;SDS011;59355;52.416;13.412;2023-07-31T08:08:13;5.57;;;4.13;;
2848;SDS011;59355;52.416;13.412;2023-07-31T08:10:42;5.13;;;4.70;;
2848;SDS011;59355;52.416;13.412;2023-07-31T08:13:09;4.97;;;4.57;;
2848;SDS011;59355;52.416;13.412;2023-07-31T08:15:35;8.90;;;5.70;;
2848;SDS011;59355;52.416;13.412;2023-07-31T08:18:01;5.43;;;4.87;;
2848;SDS011;59355;52.416;13.412;2023-07-31T08:20:26;8.20;;;4.80;;
2848;SDS011;59355;52.416;13.412;2023-07-31T08:22:51;7.33;;;5.43;;
2848;SDS011;59355;52.416;13.412;2023-07-31T08:25:18;6.30;;;4.77;;
2848;SDS011;59355;52.416;13.412;2023-07-31T08:27:43;6.40;;;4.40;;
2848;SDS011;59355;52.416;13.412;2023-07-31T08:30:09;8.03;;;5.20;;
2848;SDS011;59355;52.416;13.412;2023-07-31T08:32:35;5.13;;;4.63;;
2848;SDS011;59355;52.416;13.412;2023-07-31T08:35:00;6.77;;;5.37;;
2848;SDS011;59355;52.416;13.412;2023-07-31T08:37:25;5.90;;;4.90;;
2848;SDS011;59355;52.416;13.412;2023-07-31T08:39:51;11.40;;;6.00;;
2848;SDS011;59355;52.416;13.412;2023-07-31T08:42:16;7.70;;;5.17;;
2848;SDS011;59355;52.416;13.412;2023-07-31T08:44:41;5.63;;;5.13;;
2848;SDS011;59355;52.416;13.412;2023-07-31T08:47:08;7.13;;;4.57;;
2848;SDS011;59355;52.416;13.412;2023-07-31T08:49:34;6.83;;;5.13;;
2848;SDS011;59355;52.416;13.412;2023-07-31T08:52:00;6.47;;;4.77;;
2848;SDS011;59355;52.416;13.412;2023-07-31T08:54:25;6.67;;;4.33;;
2848;SDS011;59355;52.416;13.412;2023-07-31T08:56:54;5.67;;;4.20;;
2848;SDS011;59355;52.416;13.412;2023-07-31T08:59:19;5.53;;;4.40;;
2848;SDS011;59355;52.416;13.412;2023-07-31T09:01:47;4.53;;;3.80;;
2848;SDS011;59355;52.416;13.412;2023-07-31T09:04:14;5.20;;;4.00;;
2848;SDS011;59355;52.416;13.412;2023-07-31T09:06:42;5.40;;;3.80;;
2848;SDS011;59355;52.416;13.412;2023-07-31T09:09:08;3.83;;;3.50;;
2848;SDS011;59355;52.416;13.412;2023-07-31T09:11:34;4.53;;;3.40;;
2848;SDS011;59355;52.416;13.412;2023-07-31T09:13:59;5.10;;;3.47;;
2848;SDS011;59355;52.416;13.412;2023-07-31T09:16:27;5.17;;;3.47;;
2848;SDS011;59355;52.416;13.412;2023-07-31T09:18:55;4.20;;;2.60;;
2848;SDS011;59355;52.416;13.412;2023-07-31T09:21:21;4.93;;;2.50;;
2848;SDS011;59355;52.416;13.412;2023-07-31T09:23:47;2.93;;;2.40;;
2848;SDS011;59355;52.416;13.412;2023-07-31T09:26:28;4.17;;;2.43;;
2848;SDS011;59355;52.416;13.412;2023-07-31T09:28:58;2.73;;;2.10;;
2848;SDS011;59355;52.416;13.412;2023-07-31T09:31:40;3.30;;;2.23;;
2848;SDS011;59355;52.416;13.412;2023-07-31T09:34:07;2.40;;;1.87;;
2848;SDS011;59355;52.416;13.412;2023-07-31T09:36:32;3.03;;;1.93;;
2848;SDS011;59355;52.416;13.412;2023-07-31T09:39:01;4.20;;;2.30;;
2848;SDS011;59355;52.416;13.412;2023-07-31T09:41:28;2.37;;;1.60;;
2848;SDS011;59355;52.416;13.412;2023-07-31T09:43:53;2.57;;;1.70;;
2848;SDS011;59355;52.416;13.412;2023-07-31T09:46:20;2.80;;;2.13;;
2848;SDS011;59355;52.416;13.412;2023-07-31T09:48:45;2.70;;;2.20;;
2848;SDS011;59355;52.416;13.412;2023-07-31T09:51:10;5.60;;;3.37;;
2848;SDS011;59355;52.416;13.412;2023-07-31T09:53:36;3.20;;;2.73;;
2848;SDS011;59355;52.416;13.412;2023-07-31T09:56:02;3.50;;;3.10;;
2848;SDS011;59355;52.416;13.412;2023-07-31T09:58:28;4.47;;;3.47;;
2848;SDS011;59355;52.416;13.412;2023-07-31T10:00:53;4.20;;;3.80;;
2848;SDS011;59355;52.416;13.412;2023-07-31T10:03:19;5.67;;;4.20;;
2848;SDS011;59355;52.416;13.412;2023-07-31T10:05:49;5.43;;;3.87;;
2848;SDS011;59355;52.416;13.412;2023-07-31T10:08:15;5.10;;;4.53;;
2848;SDS011;59355;52.416;13.412;2023-07-31T10:10:41;5.27;;;3.83;;
2848;SDS011;59355;52.416;13.412;2023-07-31T10:13:08;4.83;;;4.33;;
2848;SDS011;59355;52.416;13.412;2023-07-31T10:15:33;6.40;;;4.87;;
2848;SDS011;59355;52.416;13.412;2023-07-31T10:17:59;7.37;;;4.33;;
2848;SDS011;59355;52.416;13.412;2023-07-31T10:20:25;10.33;;;4.87;;
2848;SDS011;59355;52.416;13.412;2023-07-31T10:22:52;5.70;;;4.70;;
2848;SDS011;59355;52.416;13.412;2023-07-31T10:25:19;8.83;;;4.90;;
2848;SDS011;59355;52.416;13.412;2023-07-31T10:27:45;5.90;;;5.03;;
2848;SDS011;59355;52.416;13.412;2023-07-31T10:30:12;8.10;;;5.50;;
2848;SDS011;59355;52.416;13.412;2023-07-31T10:32:41;6.90;;;5.10;;
2848;SDS011;59355;52.416;13.412;2023-07-31T10:35:07;5.63;;;4.57;;
2848;SDS011;59355;52.416;13.412;2023-07-31T10:37:36;7.97;;;5.33;;
2848;SDS011;59355;52.416;13.412;2023-07-31T10:40:05;7.27;;;4.67;;
2848;SDS011;59355;52.416;13.412;2023-07-31T10:42:35;7.83;;;5.33;;
2848;SDS011;59355;52.416;13.412;2023-07-31T10:45:14;7.10;;;4.93;;
2848;SDS011;59355;52.416;13.412;2023-07-31T10:47:51;5.77;;;5.10;;
2848;SDS011;59355;52.416;13.412;2023-07-31T10:50:24;6.13;;;4.80;;
2848;SDS011;59355;52.416;13.412;2023-07-31T10:52:51;8.60;;;5.60;;
2848;SDS011;59355;52.416;13.412;2023-07-31T10:58:09;8.50;;;5.17;;
2848;SDS011;59355;52.416;13.412;2023-07-31T11:03:06;6.83;;;4.60;;
2848;SDS011;59355;52.416;13.412;2023-07-31T11:05:51;6.93;;;4.67;;
2848;SDS011;59355;52.416;13.412;2023-07-31T11:08:19;7.33;;;4.07;;
2848;SDS011;59355;52.416;13.412;2023-07-31T11:13:26;5.80;;;4.30;;
2848;SDS011;59355;52.416;13.412;2023-07-31T11:15:51;7.20;;;4.73;;
2848;SDS011;59355;52.416;13.412;2023-07-31T11:18:16;7.77;;;4.77;;
2848;SDS011;59355;52.416;13.412;2023-07-31T11:20:43;5.60;;;5.00;;
2848;SDS011;59355;52.416;13.412;2023-07-31T11:23:08;4.80;;;3.83;;
2848;SDS011;59355;52.416;13.412;2023-07-31T11:25:35;5.80;;;3.67;;
2848;SDS011;59355;52.416;13.412;2023-07-31T11:28:10;6.33;;;4.17;;
2848;SDS011;59355;52.416;13.412;2023-07-31T11:30:36;4.97;;;3.90;;
2848;SDS011;59355;52.416;13.412;2023-07-31T11:33:02;6.70;;;4.53;;
2848;SDS011;59355;52.416;13.412;2023-07-31T11:35:31;5.27;;;3.87;;
2848;SDS011;59355;52.416;13.412;2023-07-31T11:37:57;5.07;;;3.70;;
2848;SDS011;59355;52.416;13.412;2023-07-31T11:40:23;6.53;;;4.03;;
2848;SDS011;59355;52.416;13.412;2023-07-31T11:42:53;5.70;;;4.20;;
2848;SDS011;59355;52.416;13.412;2023-07-31T11:45:19;5.40;;;4.43;;
2848;SDS011;59355;52.416;13.412;2023-07-31T11:47:44;5.40;;;3.90;;
2848;SDS011;59355;52.416;13.412;2023-07-31T11:50:10;4.40;;;3.80;;
2848;SDS011;59355;52.416;13.412;2023-07-31T11:52:38;8.10;;;4.00;;
2848;SDS011;59355;52.416;13.412;2023-07-31T11:55:06;6.40;;;4.07;;
2848;SDS011;59355;52.416;13.412;2023-07-31T11:57:34;7.80;;;3.80;;
2848;SDS011;59355;52.416;13.412;2023-07-31T11:59:59;6.53;;;3.93;;
2848;SDS011;59355;52.416;13.412;2023-07-31T12:02:25;4.93;;;3.87;;
2848;SDS011;59355;52.416;13.412;2023-07-31T12:04:50;8.30;;;4.20;;
2848;SDS011;59355;52.416;13.412;2023-07-31T12:07:16;4.37;;;3.60;;
2848;SDS011;59355;52.416;13.412;2023-07-31T12:09:51;5.77;;;4.17;;
2848;SDS011;59355;52.416;13.412;2023-07-31T12:12:20;6.37;;;4.20;;
2848;SDS011;59355;52.416;13.412;2023-07-31T12:14:46;5.67;;;3.90;;
2848;SDS011;59355;52.416;13.412;2023-07-31T12:17:12;5.63;;;3.93;;
2848;SDS011;59355;52.416;13.412;2023-07-31T12:19:37;9.40;;;4.50;;
2848;SDS011;59355;52.416;13.412;2023-07-31T12:22:10;8.23;;;4.10;;
2848;SDS011;59355;52.416;13.412;2023-07-31T12:24:36;5.67;;;3.40;;
2848;SDS011;59355;52.416;13.412;2023-07-31T12:27:08;6.50;;;4.37;;
2848;SDS011;59355;52.416;13.412;2023-07-31T12:29:34;5.63;;;3.77;;
2848;SDS011;59355;52.416;13.412;2023-07-31T12:32:00;7.73;;;4.23;;
2848;SDS011;59355;52.416;13.412;2023-07-31T12:34:26;5.83;;;3.73;;
2848;SDS011;59355;52.416;13.412;2023-07-31T12:36:52;6.00;;;4.00;;
2848;SDS011;59355;52.416;13.412;2023-07-31T12:39:18;5.60;;;4.20;;
2848;SDS011;59355;52.416;13.412;2023-07-31T12:41:43;4.33;;;3.30;;
2848;SDS011;59355;52.416;13.412;2023-07-31T12:44:08;5.30;;;3.40;;
2848;SDS011;59355;52.416;13.412;2023-07-31T12:46:35;4.10;;;2.90;;
2848;SDS011;59355;52.416;13.412;2023-07-31T12:49:00;3.50;;;3.20;;
2848;SDS011;59355;52.416;13.412;2023-07-31T12:51:25;4.30;;;3.10;;
2848;SDS011;59355;52.416;13.412;2023-07-31T12:53:50;3.93;;;2.50;;
2848;SDS011;59355;52.416;13.412;2023-07-31T12:56:16;5.50;;;2.87;;
2848;SDS011;59355;52.416;13.412;2023-07-31T12:58:42;3.60;;;3.00;;
2848;SDS011;59355;52.416;13.412;2023-07-31T13:01:07;9.13;;;3.33;;
2848;SDS011;59355;52.416;13.412;2023-07-31T13:03:33;5.33;;;3.47;;
2848;SDS011;59355;52.416;13.412;2023-07-31T13:05:58;5.80;;;3.43;;
2848;SDS011;59355;52.416;13.412;2023-07-31T13:08:23;4.70;;;3.10;;
2848;SDS011;59355;52.416;13.412;2023-07-31T13:10:49;4.50;;;3.37;;
2848;SDS011;59355;52.416;13.412;2023-07-31T13:13:14;7.23;;;3.23;;
2848;SDS011;59355;52.416;13.412;2023-07-31T13:15:39;6.20;;;3.40;;
2848;SDS011;59355;52.416;13.412;2023-07-31T13:18:04;5.53;;;3.57;;
2848;SDS011;59355;52.416;13.412;2023-07-31T13:20:30;4.67;;;3.80;;
2848;SDS011;59355;52.416;13.412;2023-07-31T13:22:55;5.37;;;3.23;;
2848;SDS011;59355;52.416;13.412;2023-07-31T13:25:21;4.33;;;3.30;;
2848;SDS011;59355;52.416;13.412;2023-07-31T13:27:46;4.60;;;3.73;;
2848;SDS011;59355;52.416;13.412;2023-07-31T13:30:11;9.10;;;3.93;;
2848;SDS011;59355;52.416;13.412;2023-07-31T13:32:37;6.60;;;4.27;;
2848;SDS011;59355;52.416;13.412;2023-07-31T13:35:05;6.80;;;3.80;;
2848;SDS011;59355;52.416;13.412;2023-07-31T13:37:31;4.37;;;3.30;;
2848;SDS011;59355;52.416;13.412;2023-07-31T13:39:56;4.97;;;3.80;;
2848;SDS011;59355;52.416;13.412;2023-07-31T13:42:22;5.87;;;4.17;;
2848;SDS011;59355;52.416;13.412;2023-07-31T13:44:47;7.30;;;4.53;;
2848;SDS011;59355;52.416;13.412;2023-07-31T13:47:12;5.80;;;4.03;;
2848;SDS011;59355;52.416;13.412;2023-07-31T13:49:38;4.87;;;4.00;;
2848;SDS011;59355;52.416;13.412;2023-07-31T13:52:03;4.77;;;3.93;;
2848;SDS011;59355;52.416;13.412;2023-07-31T13:54:29;6.57;;;4.40;;
2848;SDS011;59355;52.416;13.412;2023-07-31T13:56:54;6.17;;;3.93;;
2848;SDS011;59355;52.416;13.412;2023-07-31T13:59:20;5.87;;;4.07;;
2848;SDS011;59355;52.416;13.412;2023-07-31T14:01:45;4.57;;;3.70;;
2848;SDS011;59355;52.416;13.412;2023-07-31T14:04:11;6.20;;;4.10;;
2848;SDS011;59355;52.416;13.412;2023-07-31T14:06:36;5.17;;;3.93;;
2848;SDS011;59355;52.416;13.412;2023-07-31T14:09:02;5.17;;;3.60;;
2848;SDS011;59355;52.416;13.412;2023-07-31T14:11:28;4.70;;;3.33;;
2848;SDS011;59355;52.416;13.412;2023-07-31T14:13:53;5.47;;;3.90;;
2848;SDS011;59355;52.416;13.412;2023-07-31T14:16:18;5.60;;;4.00;;
2848;SDS011;59355;52.416;13.412;2023-07-31T14:18:44;7.43;;;3.70;;
2848;SDS011;59355;52.416;13.412;2023-07-31T14:21:10;4.67;;;4.20;;
2848;SDS011;59355;52.416;13.412;2023-07-31T14:23:36;6.27;;;4.43;;
2848;SDS011;59355;52.416;13.412;2023-07-31T14:26:01;5.03;;;3.83;;
2848;SDS011;59355;52.416;13.412;2023-07-31T14:28:27;6.87;;;4.50;;
2848;SDS011;59355;52.416;13.412;2023-07-31T14:30:52;5.37;;;3.80;;
2848;SDS011;59355;52.416;13.412;2023-07-31T14:33:17;5.77;;;4.30;;
2848;SDS011;59355;52.416;13.412;2023-07-31T14:35:43;5.43;;;3.83;;
2848;SDS011;59355;52.416;13.412;2023-07-31T14:38:08;5.27;;;3.67;;
2848;SDS011;59355;52.416;13.412;2023-07-31T14:40:33;4.80;;;3.97;;
2848;SDS011;59355;52.416;13.412;2023-07-31T14:42:59;4.70;;;3.67;;
2848;SDS011;59355;52.416;13.412;2023-07-31T14:45:24;4.50;;;3.80;;
2848;SDS011;59355;52.416;13.412;2023-07-31T14:47:49;5.20;;;4.17;;
2848;SDS011;59355;52.416;13.412;2023-07-31T14:50:15;6.03;;;4.27;;
2848;SDS011;59355;52.416;13.412;2023-07-31T14:52:40;5.03;;;3.67;;
2848;SDS011;59355;52.416;13.412;2023-07-31T14:55:06;5.03;;;3.50;;